Time;durP1;ratioP1;P1;durP2;ratioP2;P2;SDS_P1;SDS_P2;PMS_P1;PMS_P2;Temp;Humidity;BMP_temperature;BMP_pressure;BME280_temperature;BME280_humidity;BME280_pressure;Samples;Min_cycle;Max_cycle;Signal;HPM_P1;HPM_P2
2021/08/04 00:00:34;;;;;;;4.10;1.95;;;13.20;99.90;;;;;;5043083;28;20053;-85
2021/08/04 00:03:02;;;;;;;3.85;1.42;;;13.20;99.90;;;;;;5026434;28;20487;-85
2021/08/04 00:05:30;;;;;;;4.07;1.85;;;13.20;99.90;;;;;;4994047;28;20065;-84
2021/08/04 00:07:58;;;;;;;1.95;1.80;;;13.20;99.90;;;;;;5009081;28;20045;-84
2021/08/04 00:10:26;;;;;;;2.38;2.17;;;13.20;99.90;;;;;;5025686;28;20046;-84
2021/08/04 00:12:54;;;;;;;2.70;1.70;;;13.20;99.90;;;;;;5023152;28;20403;-85
2021/08/04 00:15:22;;;;;;;2.10;1.48;;;13.30;99.90;;;;;;4990014;28;20056;-84
2021/08/04 00:17:51;;;;;;;2.88;2.63;;;13.20;99.90;;;;;;5037946;28;20037;-84
2021/08/04 00:20:19;;;;;;;3.38;1.52;;;13.20;99.90;;;;;;5008604;28;20057;-84
2021/08/04 00:22:47;;;;;;;3.42;2.33;;;13.20;99.90;;;;;;5009225;28;20045;-84
2021/08/04 00:25:15;;;;;;;2.38;1.85;;;13.20;99.90;;;;;;5009346;28;20073;-84
2021/08/04 00:27:43;;;;;;;2.25;1.98;;;13.20;99.90;;;;;;5010520;28;20073;-84
2021/08/04 00:30:12;;;;;;;2.15;2.03;;;13.20;99.90;;;;;;4993847;28;20435;-85
2021/08/04 00:32:40;;;;;;;1.88;1.77;;;13.20;99.90;;;;;;5009358;28;20057;-85
2021/08/04 00:35:09;;;;;;;2.25;2.00;;;13.20;99.90;;;;;;5040827;28;20046;-85
2021/08/04 00:37:38;;;;;;;2.10;1.33;;;13.30;99.90;;;;;;5009444;28;20038;-85
2021/08/04 00:40:07;;;;;;;2.30;2.10;;;13.30;99.90;;;;;;5007929;28;20038;-84
2021/08/04 00:42:36;;;;;;;1.58;1.48;;;13.20;99.90;;;;;;5009786;28;20046;-84
2021/08/04 00:45:05;;;;;;;1.60;1.40;;;13.20;99.90;;;;;;5025152;28;20041;-84
2021/08/04 00:47:33;;;;;;;1.70;1.60;;;13.30;99.90;;;;;;5032620;28;20041;-85
2021/08/04 00:50:02;;;;;;;2.22;2.03;;;13.20;99.90;;;;;;5027749;28;20053;-84
2021/08/04 00:52:30;;;;;;;3.30;3.00;;;13.30;99.90;;;;;;5061554;28;20124;-84
2021/08/04 00:54:58;;;;;;;1.92;1.73;;;13.30;99.90;;;;;;5044554;28;20608;-85
2021/08/04 00:57:26;;;;;;;3.92;2.00;;;13.30;99.90;;;;;;5045783;28;20053;-84
2021/08/04 01:00:05;;;;;;;2.95;2.20;;;13.20;99.90;;;;;;5043722;28;20048;-85
2021/08/04 01:02:39;;;;;;;3.33;2.72;;;13.20;99.90;;;;;;5029093;28;20060;-85
2021/08/04 01:05:16;;;;;;;4.65;2.70;;;13.10;99.90;;;;;;5027117;28;20057;-84
2021/08/04 01:08:07;;;;;;;1.80;1.67;;;13.00;99.90;;;;;;5036196;28;20046;-84
2021/08/04 01:10:47;;;;;;;3.85;2.20;;;12.90;99.90;;;;;;5041335;28;20054;-84
2021/08/04 01:13:26;;;;;;;1.93;1.47;;;12.90;99.90;;;;;;5011855;28;20046;-84
2021/08/04 01:16:11;;;;;;;2.13;1.75;;;12.90;99.90;;;;;;5038876;28;20283;-84
2021/08/04 01:19:07;;;;;;;2.20;1.40;;;12.90;99.90;;;;;;5008628;28;20258;-85
2021/08/04 01:21:49;;;;;;;5.07;2.92;;;12.80;99.90;;;;;;5014200;28;20042;-84
2021/08/04 01:24:25;;;;;;;2.38;2.13;;;12.80;99.90;;;;;;5024984;28;20042;-84
2021/08/04 01:26:54;;;;;;;2.03;1.92;;;12.80;99.90;;;;;;5024284;28;20050;-84
2021/08/04 01:29:24;;;;;;;2.15;1.67;;;12.80;99.90;;;;;;5025226;28;20089;-84
2021/08/04 01:31:58;;;;;;;1.67;1.50;;;12.80;99.90;;;;;;5024865;28;20062;-84
2021/08/04 01:34:30;;;;;;;2.53;1.90;;;12.80;99.90;;;;;;5044389;28;20483;-84
2021/08/04 01:36:58;;;;;;;4.20;3.20;;;12.80;99.90;;;;;;5061267;28;20046;-84
2021/08/04 01:39:27;;;;;;;3.08;2.08;;;12.80;99.90;;;;;;5044152;28;20047;-84
2021/08/04 01:41:56;;;;;;;2.45;1.58;;;12.80;99.90;;;;;;5055254;28;20057;-84
2021/08/04 01:44:25;;;;;;;2.42;2.13;;;12.80;99.90;;;;;;5048304;28;20665;-87
2021/08/04 01:46:54;;;;;;;3.72;2.05;;;12.80;99.90;;;;;;5050712;28;20494;-85
2021/08/04 01:49:24;;;;;;;6.97;2.17;;;12.80;99.90;;;;;;5051976;28;20064;-85
2021/08/04 01:51:52;;;;;;;2.83;2.35;;;12.80;99.90;;;;;;5024782;28;20384;-85
2021/08/04 01:54:21;;;;;;;2.72;2.53;;;12.80;99.90;;;;;;5028154;28;20058;-85
2021/08/04 01:56:51;;;;;;;2.97;2.25;;;12.80;99.90;;;;;;5065267;28;20048;-84
2021/08/04 01:59:21;;;;;;;3.92;2.25;;;12.70;99.90;;;;;;5048291;28;20513;-85
2021/08/04 02:01:49;;;;;;;4.10;2.13;;;12.70;99.90;;;;;;5031586;28;20060;-84
2021/08/04 02:04:17;;;;;;;3.33;2.22;;;12.70;99.90;;;;;;5047552;28;20051;-83
2021/08/04 02:07:01;;;;;;;4.30;2.25;;;12.70;99.90;;;;;;5029895;28;20072;-83
2021/08/04 02:09:35;;;;;;;3.72;2.05;;;12.70;99.90;;;;;;5031998;28;20414;-84
2021/08/04 02:12:11;;;;;;;2.20;1.75;;;12.70;99.90;;;;;;5068553;28;20057;-84
2021/08/04 02:14:56;;;;;;;5.53;1.65;;;12.70;99.90;;;;;;5060634;28;20054;-83
2021/08/04 02:17:47;;;;;;;4.22;2.17;;;12.70;99.90;;;;;;5014820;28;20041;-83
2021/08/04 02:20:38;;;;;;;3.70;2.92;;;12.70;99.90;;;;;;5019893;28;20046;-84
2021/08/04 02:23:12;;;;;;;;;;;12.70;99.90;;;;;;5011468;28;20050;-84
2021/08/04 02:25:44;;;;;;;3.40;3.05;;;12.80;99.90;;;;;;5027018;28;19936;-83
2021/08/04 02:28:19;;;;;;;2.80;2.45;;;12.80;99.90;;;;;;5010708;28;20053;-84
2021/08/04 02:30:50;;;;;;;1.48;1.38;;;12.80;99.90;;;;;;5044170;28;20049;-84
2021/08/04 02:33:21;;;;;;;3.58;2.45;;;12.70;99.90;;;;;;5011989;28;20046;-84
2021/08/04 02:35:49;;;;;;;2.20;1.98;;;12.80;99.90;;;;;;5012070;28;20042;-84
2021/08/04 02:38:17;;;;;;;3.53;2.28;;;12.80;99.90;;;;;;5044820;28;20045;-84
2021/08/04 02:40:46;;;;;;;1.70;1.60;;;12.80;99.90;;;;;;5013372;28;20045;-84
2021/08/04 02:43:15;;;;;;;4.72;2.33;;;12.80;99.90;;;;;;5064053;28;20037;-84
2021/08/04 02:45:44;;;;;;;2.65;2.13;;;12.80;99.90;;;;;;5064328;28;20052;-85
2021/08/04 02:48:13;;;;;;;2.30;2.03;;;12.80;99.90;;;;;;5032077;28;20046;-84
2021/08/04 02:50:47;;;;;;;3.75;2.25;;;12.80;99.90;;;;;;5042861;28;20052;-84
2021/08/04 02:53:17;;;;;;;4.20;3.03;;;12.90;99.90;;;;;;5027813;28;20395;-84
2021/08/04 02:55:48;;;;;;;2.40;2.25;;;12.90;99.90;;;;;;5011439;28;20038;-84
2021/08/04 02:58:16;;;;;;;3.67;2.25;;;12.80;99.90;;;;;;5043907;28;20042;-84
2021/08/04 03:00:45;;;;;;;2.42;2.17;;;12.90;99.90;;;;;;5011796;28;20037;-84
2021/08/04 03:03:13;;;;;;;6.20;3.13;;;12.80;99.90;;;;;;5043549;28;20487;-84
2021/08/04 03:05:41;;;;;;;6.50;2.30;;;12.80;99.90;;;;;;5012348;28;20061;-84
2021/08/04 03:08:10;;;;;;;3.00;1.80;;;12.80;99.90;;;;;;5012009;28;20046;-84
2021/08/04 03:10:38;;;;;;;2.92;2.00;;;12.80;99.90;;;;;;5044531;28;20073;-79
2021/08/04 03:13:06;;;;;;;2.33;2.13;;;12.80;99.90;;;;;;5052035;28;20045;-84
2021/08/04 03:15:34;;;;;;;4.05;2.67;;;12.90;99.90;;;;;;5049896;28;20375;-84
2021/08/04 03:18:02;;;;;;;2.50;2.30;;;12.80;99.90;;;;;;5034051;28;20041;-84
2021/08/04 03:20:31;;;;;;;4.25;3.67;;;12.90;99.90;;;;;;5063146;28;20042;-84
2021/08/04 03:22:58;;;;;;;3.05;1.90;;;12.90;99.90;;;;;;5031458;28;20049;-84
2021/08/04 03:25:27;;;;;;;2.40;2.22;;;12.80;99.90;;;;;;5031372;28;20046;-84
2021/08/04 03:27:55;;;;;;;2.58;1.98;;;12.80;99.90;;;;;;5031185;28;20053;-84
2021/08/04 03:30:23;;;;;;;2.88;2.65;;;12.80;99.90;;;;;;5031732;28;20045;-83
2021/08/04 03:32:50;;;;;;;2.47;2.28;;;12.90;99.90;;;;;;5026708;28;20060;-78
2021/08/04 03:35:18;;;;;;;2.80;1.75;;;12.90;99.90;;;;;;5011418;28;20049;-78
2021/08/04 03:37:46;;;;;;;3.75;2.72;;;12.90;99.90;;;;;;5011849;28;20057;-79
2021/08/04 03:40:15;;;;;;;3.28;2.20;;;12.80;99.90;;;;;;5010571;28;20053;-79
2021/08/04 03:42:42;;;;;;;2.75;2.08;;;12.80;99.90;;;;;;5046650;28;20056;-78
2021/08/04 03:45:11;;;;;;;8.45;2.38;;;12.80;99.90;;;;;;5051686;28;20056;-79
2021/08/04 03:47:40;;;;;;;2.03;1.83;;;12.90;99.90;;;;;;5050955;28;20071;-78
2021/08/04 03:50:09;;;;;;;3.78;1.80;;;12.80;99.90;;;;;;5051159;28;20044;-78
2021/08/04 03:52:40;;;;;;;2.97;2.40;;;12.90;99.90;;;;;;5032583;28;20045;-78
2021/08/04 03:55:09;;;;;;;2.35;1.88;;;12.90;99.90;;;;;;5047895;28;20768;-78
2021/08/04 03:57:38;;;;;;;2.08;1.83;;;12.90;99.90;;;;;;5051374;28;20049;-79
2021/08/04 04:00:07;;;;;;;2.90;2.58;;;12.90;99.90;;;;;;5050755;28;20401;-78
2021/08/04 04:02:39;;;;;;;3.58;2.92;;;12.90;99.90;;;;;;5050778;28;20055;-78
2021/08/04 04:05:09;;;;;;;3.63;2.28;;;12.90;99.90;;;;;;5083211;28;20072;-79
2021/08/04 04:07:38;;;;;;;2.63;2.05;;;12.90;99.90;;;;;;5050022;28;20059;-79
2021/08/04 04:10:07;;;;;;;2.00;1.77;;;12.90;99.90;;;;;;5049245;28;20056;-79
2021/08/04 04:12:35;;;;;;;2.28;2.10;;;12.90;99.90;;;;;;5033979;28;20045;-79
2021/08/04 04:15:04;;;;;;;1.90;1.75;;;12.80;99.90;;;;;;5062357;28;20053;-81
2021/08/04 04:17:33;;;;;;;2.10;2.00;;;12.80;99.90;;;;;;5062607;28;20054;-81
2021/08/04 04:20:01;;;;;;;2.97;2.30;;;12.90;99.90;;;;;;5028733;28;20042;-79
2021/08/04 04:22:29;;;;;;;3.47;2.72;;;12.80;99.90;;;;;;5030846;28;20049;-79
2021/08/04 04:24:56;;;;;;;1.63;1.52;;;12.80;99.90;;;;;;5029789;28;20054;-79
2021/08/04 04:27:24;;;;;;;4.10;1.95;;;12.80;99.90;;;;;;5030478;28;20049;-79
2021/08/04 04:29:52;;;;;;;4.60;2.08;;;12.80;99.90;;;;;;5030791;28;20049;-79
2021/08/04 04:32:21;;;;;;;2.92;2.65;;;12.80;99.90;;;;;;5030413;28;20034;-79
2021/08/04 04:34:49;;;;;;;2.42;2.22;;;12.80;99.90;;;;;;5030081;28;20045;-78
2021/08/04 04:37:16;;;;;;;3.97;2.30;;;12.80;99.90;;;;;;5030711;28;20041;-79
2021/08/04 04:39:44;;;;;;;3.65;2.40;;;12.90;99.90;;;;;;5030410;28;20048;-79
2021/08/04 04:42:12;;;;;;;2.72;2.10;;;12.90;99.90;;;;;;5029799;28;20058;-79
2021/08/04 04:44:40;;;;;;;4.63;2.20;;;12.90;99.90;;;;;;5030362;28;20411;-79
2021/08/04 04:47:08;;;;;;;3.30;2.55;;;12.80;99.90;;;;;;5029879;28;20430;-78
2021/08/04 04:49:36;;;;;;;3.40;2.53;;;12.80;99.90;;;;;;5022137;28;20052;-78
2021/08/04 04:52:05;;;;;;;3.30;2.35;;;12.90;99.90;;;;;;5010096;28;20052;-79
2021/08/04 04:54:33;;;;;;;2.83;1.98;;;12.80;99.90;;;;;;5010992;28;20057;-79
2021/08/04 04:57:01;;;;;;;2.35;1.70;;;12.80;99.90;;;;;;5009525;28;20048;-79
2021/08/04 04:59:29;;;;;;;2.08;1.92;;;12.80;99.90;;;;;;5010609;28;20049;-79
2021/08/04 05:01:56;;;;;;;1.83;1.58;;;12.80;99.90;;;;;;5042188;28;20050;-79
2021/08/04 05:04:24;;;;;;;2.67;1.95;;;12.80;99.90;;;;;;5010534;28;20046;-78
2021/08/04 05:06:52;;;;;;;4.22;2.60;;;12.80;99.90;;;;;;5010301;28;20049;-79
2021/08/04 05:09:20;;;;;;;2.95;2.65;;;12.80;99.90;;;;;;5010896;28;20050;-79
2021/08/04 05:11:48;;;;;;;2.67;2.17;;;12.80;99.90;;;;;;5019746;28;20033;-79
2021/08/04 05:14:16;;;;;;;5.88;3.00;;;12.90;99.90;;;;;;5029869;28;20049;-79
2021/08/04 05:16:44;;;;;;;2.75;1.98;;;13.00;99.90;;;;;;5029626;28;20490;-79
2021/08/04 05:19:12;;;;;;;1.83;1.45;;;13.00;99.90;;;;;;5029875;28;20045;-79
2021/08/04 05:21:41;;;;;;;2.55;2.35;;;13.00;99.90;;;;;;5033723;28;20049;-79
2021/08/04 05:24:09;;;;;;;1.48;1.35;;;13.00;99.90;;;;;;5033677;28;20497;-79
2021/08/04 05:26:37;;;;;;;2.70;2.50;;;13.00;99.90;;;;;;5033367;28;20082;-79
2021/08/04 05:29:04;;;;;;;2.30;1.75;;;13.10;99.90;;;;;;5032858;28;20376;-79
2021/08/04 05:31:32;;;;;;;2.10;1.60;;;13.10;99.90;;;;;;5033654;28;20041;-79
2021/08/04 05:34:00;;;;;;;4.57;2.58;;;13.20;99.90;;;;;;5020089;28;20534;-79
2021/08/04 05:36:28;;;;;;;4.05;2.40;;;13.30;99.90;;;;;;5013570;28;20042;-79
2021/08/04 05:38:57;;;;;;;2.95;1.80;;;13.30;99.90;;;;;;5013944;28;20050;-79
2021/08/04 05:41:25;;;;;;;2.60;2.17;;;13.30;99.90;;;;;;5020104;28;20041;-79
2021/08/04 05:43:53;;;;;;;5.88;2.13;;;13.30;99.90;;;;;;5033454;28;20046;-79
2021/08/04 05:46:21;;;;;;;1.90;1.60;;;13.30;99.90;;;;;;5033898;28;20041;-79
2021/08/04 05:48:49;;;;;;;1.38;1.25;;;13.30;99.90;;;;;;5033311;28;20049;-79
2021/08/04 05:51:17;;;;;;;1.77;1.67;;;13.30;99.90;;;;;;5032873;28;20398;-79
2021/08/04 05:53:45;;;;;;;3.67;1.83;;;13.30;99.90;;;;;;5033644;28;20053;-79
2021/08/04 05:56:12;;;;;;;2.80;1.70;;;13.40;99.90;;;;;;5032443;28;20064;-79
2021/08/04 05:58:40;;;;;;;2.65;1.67;;;13.40;99.90;;;;;;5031210;28;20053;-78
2021/08/04 06:01:08;;;;;;;2.25;1.60;;;13.50;99.90;;;;;;5033754;28;20072;-79
2021/08/04 06:03:37;;;;;;;2.45;1.75;;;13.60;99.90;;;;;;5033169;28;20037;-79
2021/08/04 06:06:05;;;;;;;1.95;1.67;;;13.60;99.90;;;;;;5033009;28;20060;-79
2021/08/04 06:08:33;;;;;;;9.80;1.67;;;13.60;99.90;;;;;;5032576;28;20057;-79
2021/08/04 06:11:01;;;;;;;2.15;1.70;;;13.60;99.90;;;;;;5029336;28;20057;-79
2021/08/04 06:13:29;;;;;;;1.45;1.35;;;13.60;99.90;;;;;;5013644;28;20054;-79
2021/08/04 06:15:57;;;;;;;2.20;1.85;;;13.50;99.90;;;;;;5013017;28;20510;-79
2021/08/04 06:18:25;;;;;;;2.30;1.67;;;13.50;99.90;;;;;;5032913;28;20041;-79
2021/08/04 06:20:53;;;;;;;2.33;1.27;;;13.50;99.90;;;;;;5031750;28;20525;-79
2021/08/04 06:23:21;;;;;;;1.98;1.75;;;13.50;99.90;;;;;;5032724;28;20038;-79
2021/08/04 06:25:49;;;;;;;1.80;1.50;;;13.60;99.90;;;;;;5032523;28;20391;-79
2021/08/04 06:28:36;;;;;;;1.42;1.10;;;13.60;99.90;;;;;;5032564;28;20049;-79
2021/08/04 06:31:04;;;;;;;1.70;1.20;;;13.70;99.90;;;;;;5032000;28;20041;-79
2021/08/04 06:33:32;;;;;;;2.42;2.08;;;13.80;99.90;;;;;;5031486;28;20045;-80
2021/08/04 06:36:00;;;;;;;1.67;1.13;;;13.70;99.90;;;;;;5031662;28;20056;-80
2021/08/04 06:38:29;;;;;;;3.08;1.38;;;13.70;99.90;;;;;;5032151;28;20049;-79
2021/08/04 06:40:57;;;;;;;2.13;1.77;;;13.80;99.90;;;;;;5030525;28;20053;-79
2021/08/04 06:43:25;;;;;;;4.40;1.45;;;13.80;99.90;;;;;;5031646;28;20046;-80
2021/08/04 06:45:53;;;;;;;2.47;1.65;;;13.80;99.90;;;;;;5031997;28;20064;-80
2021/08/04 06:48:21;;;;;;;5.22;1.52;;;13.80;99.90;;;;;;5031559;28;20052;-79
2021/08/04 06:50:49;;;;;;;2.70;1.60;;;13.70;99.90;;;;;;5013156;28;20061;-79
2021/08/04 06:53:17;;;;;;;3.42;1.80;;;13.70;99.90;;;;;;5012810;28;20057;-80
2021/08/04 06:55:45;;;;;;;1.48;1.38;;;13.80;99.90;;;;;;5009671;28;20061;-80
2021/08/04 06:58:13;;;;;;;4.57;1.80;;;13.80;99.90;;;;;;5012779;28;20046;-80
2021/08/04 07:00:40;;;;;;;1.92;1.52;;;13.80;99.90;;;;;;5011897;28;20061;-80
2021/08/04 07:03:08;;;;;;;1.65;1.50;;;13.90;99.90;;;;;;5012182;28;20049;-80
2021/08/04 07:05:37;;;;;;;3.85;1.70;;;14.00;99.90;;;;;;5012478;28;20038;-80
2021/08/04 07:08:07;;;;;;;2.40;2.08;;;14.00;99.90;;;;;;5011886;28;20054;-80
2021/08/04 07:10:52;;;;;;;2.92;2.38;;;14.10;99.90;;;;;;5013575;28;20054;-80
2021/08/04 07:13:22;;;;;;;1.83;1.73;;;14.10;99.90;;;;;;5032288;28;20049;-80
2021/08/04 07:15:51;;;;;;;3.60;2.58;;;14.20;99.90;;;;;;5029655;28;20402;-80
2021/08/04 07:18:19;;;;;;;3.67;1.77;;;14.20;99.90;;;;;;5031852;28;20498;-80
2021/08/04 07:20:47;;;;;;;2.17;1.45;;;14.20;99.90;;;;;;5062446;28;20054;-80
2021/08/04 07:23:16;;;;;;;3.28;2.00;;;14.30;99.90;;;;;;5031246;28;20390;-80
2021/08/04 07:25:44;;;;;;;2.75;1.88;;;14.30;99.90;;;;;;5031095;28;20403;-80
2021/08/04 07:28:12;;;;;;;2.75;2.03;;;14.30;99.90;;;;;;5031321;28;20041;-80
2021/08/04 07:30:40;;;;;;;3.13;2.63;;;14.40;99.90;;;;;;5029333;28;20061;-79
2021/08/04 07:33:08;;;;;;;2.45;1.65;;;14.40;99.90;;;;;;5024807;28;20050;-80
2021/08/04 07:35:36;;;;;;;2.40;1.60;;;14.50;99.90;;;;;;5011404;28;20046;-80
2021/08/04 07:38:04;;;;;;;3.63;3.05;;;14.50;99.90;;;;;;5011375;28;20049;-80
2021/08/04 07:40:32;;;;;;;2.75;1.95;;;14.60;99.90;;;;;;5008678;28;20061;-80
2021/08/04 07:43:00;;;;;;;3.38;2.28;;;14.70;99.90;;;;;;5011116;28;20048;-80
2021/08/04 07:45:28;;;;;;;1.88;1.67;;;14.70;99.90;;;;;;5043188;28;20042;-81
2021/08/04 07:47:56;;;;;;;4.30;2.63;;;14.80;99.90;;;;;;5011096;28;20622;-81
2021/08/04 07:50:23;;;;;;;2.38;1.98;;;14.80;99.90;;;;;;5010774;28;20055;-80
2021/08/04 07:52:51;;;;;;;1.63;1.52;;;14.80;99.90;;;;;;5010637;28;20085;-80
2021/08/04 07:55:19;;;;;;;1.25;1.10;;;14.80;99.90;;;;;;5010122;28;20066;-80
2021/08/04 07:57:47;;;;;;;1.58;1.48;;;14.80;99.90;;;;;;5011524;28;20061;-81
2021/08/04 08:00:16;;;;;;;3.88;2.22;;;14.70;99.90;;;;;;5010551;28;20499;-81
2021/08/04 08:02:44;;;;;;;1.65;1.52;;;14.80;99.90;;;;;;5011293;28;20053;-80
2021/08/04 08:05:13;;;;;;;2.92;1.80;;;14.80;99.90;;;;;;5011074;28;20520;-80
2021/08/04 08:07:45;;;;;;;;;;;14.90;99.90;;;;;;5011934;28;20049;-80
2021/08/04 08:10:13;;;;;;;1.67;1.35;;;14.90;99.90;;;;;;5050450;28;19924;-80
2021/08/04 08:12:41;;;;;;;1.85;1.58;;;15.00;99.90;;;;;;5015831;28;20038;-81
2021/08/04 08:15:12;;;;;;;2.72;2.53;;;15.10;99.90;;;;;;5011044;28;20042;-80
2021/08/04 08:17:42;;;;;;;2.80;1.70;;;15.10;99.90;;;;;;5024414;28;20061;-81
2021/08/04 08:20:13;;;;;;;2.13;1.58;;;15.10;99.90;;;;;;5029820;28;20050;-81
2021/08/04 08:22:41;;;;;;;1.30;1.20;;;15.10;99.90;;;;;;5028201;28;20518;-80
2021/08/04 08:25:14;;;;;;;5.18;1.48;;;15.10;99.90;;;;;;5028438;28;20053;-81
2021/08/04 08:27:42;;;;;;;4.00;1.70;;;15.10;99.90;;;;;;5030570;28;20056;-81
2021/08/04 08:30:12;;;;;;;1.25;1.15;;;15.10;99.90;;;;;;5030282;28;20045;-81
2021/08/04 08:32:40;;;;;;;1.48;1.17;;;15.20;99.90;;;;;;5030598;28;20045;-81
2021/08/04 08:35:08;;;;;;;2.00;1.38;;;15.30;99.90;;;;;;5030325;28;20483;-81
2021/08/04 08:37:36;;;;;;;1.05;0.98;;;15.30;99.90;;;;;;5030705;28;20068;-81
2021/08/04 08:40:05;;;;;;;2.03;1.10;;;15.30;99.90;;;;;;5028229;28;20049;-81
2021/08/04 08:42:33;;;;;;;1.95;0.93;;;15.30;99.90;;;;;;5046895;28;20052;-81
2021/08/04 08:45:01;;;;;;;1.48;1.38;;;15.30;99.90;;;;;;5050393;28;20116;-81
2021/08/04 08:47:29;;;;;;;2.03;1.30;;;15.20;99.90;;;;;;5050195;28;20048;-81
2021/08/04 08:49:59;;;;;;;2.13;1.13;;;15.30;99.90;;;;;;5027765;28;20130;-81
2021/08/04 08:52:27;;;;;;;1.42;1.15;;;15.20;99.90;;;;;;5010455;28;20045;-81
2021/08/04 08:54:58;;;;;;;1.58;1.15;;;15.20;99.90;;;;;;5010799;28;20048;-80
2021/08/04 08:57:26;;;;;;;;;;;15.30;99.90;;;;;;5015060;28;20054;-81
2021/08/04 08:59:58;;;;;;;0.88;0.82;;;15.30;99.90;;;;;;5014119;28;19921;-81
2021/08/04 09:02:27;;;;;;;1.83;1.05;;;15.20;99.90;;;;;;5013028;28;20053;-81
2021/08/04 09:05:10;;;;;;;0.68;0.68;;;15.10;99.90;;;;;;5028918;28;20045;-81
2021/08/04 09:07:46;;;;;;;2.33;1.58;;;15.20;99.90;;;;;;5013920;28;20491;-81
2021/08/04 09:10:33;;;;;;;1.27;1.17;;;15.30;99.90;;;;;;5013632;28;20054;-81
2021/08/04 09:13:04;;;;;;;1.88;0.93;;;15.30;99.90;;;;;;5045262;28;20042;-80
2021/08/04 09:15:38;;;;;;;1.00;0.93;;;15.40;99.90;;;;;;5013080;28;20117;-81
2021/08/04 09:18:10;;;;;;;1.02;0.93;;;15.40;99.90;;;;;;5030951;28;20053;-81
2021/08/04 09:20:45;;;;;;;0.70;0.70;;;15.40;99.90;;;;;;5033198;28;20041;-81
2021/08/04 09:23:15;;;;;;;1.75;1.10;;;15.40;99.90;;;;;;5033772;28;20037;-81
2021/08/04 09:26:10;;;;;;;6.63;0.73;;;15.40;99.90;;;;;;5031458;28;20042;-81
2021/08/04 09:28:59;;;;;;;0.95;0.80;;;15.40;99.90;;;;;;5033542;28;20049;-80
2021/08/04 09:31:52;;;;;;;2.97;1.05;;;15.30;99.90;;;;;;5032032;28;20144;-80
2021/08/04 09:34:40;;;;;;;2.72;1.00;;;15.40;99.90;;;;;;5033944;28;20045;-80
2021/08/04 09:37:14;;;;;;;1.40;1.30;;;15.50;99.90;;;;;;5033024;28;20061;-81
2021/08/04 09:39:45;;;;;;;1.30;1.20;;;15.40;99.90;;;;;;5033405;28;20046;-81
2021/08/04 09:42:14;;;;;;;2.63;1.60;;;15.40;99.90;;;;;;5047854;28;20052;-81
2021/08/04 09:44:56;;;;;;;2.30;1.52;;;15.30;99.90;;;;;;5031240;28;20049;-82
2021/08/04 09:47:25;;;;;;;4.05;1.38;;;15.10;99.90;;;;;;5033196;28;20056;-81
2021/08/04 09:49:54;;;;;;;1.65;1.40;;;15.00;99.90;;;;;;5031592;28;20065;-81
2021/08/04 09:52:22;;;;;;;3.22;1.75;;;15.10;99.90;;;;;;5033131;28;20045;-81
2021/08/04 09:54:54;;;;;;;1.95;1.63;;;15.20;99.90;;;;;;5032708;28;20402;-81
2021/08/04 09:57:42;;;;;;;2.30;1.60;;;15.30;99.90;;;;;;5064886;28;20049;-81
2021/08/04 10:00:13;;;;;;;2.90;1.55;;;15.30;99.90;;;;;;5031238;28;20052;-81
2021/08/04 10:02:44;;;;;;;3.75;2.47;;;15.20;99.90;;;;;;5033099;28;20041;-79
2021/08/04 10:05:26;;;;;;;1.75;1.40;;;15.30;99.90;;;;;;5033272;28;20045;-81
2021/08/04 10:08:11;;;;;;;4.70;3.80;;;15.40;99.90;;;;;;5031221;28;20048;-81
2021/08/04 10:10:45;;;;;;;2.08;1.45;;;15.50;99.90;;;;;;5030748;28;20045;-81
2021/08/04 10:13:17;;;;;;;2.03;1.45;;;15.50;99.90;;;;;;5013546;28;20054;-81
2021/08/04 10:15:49;;;;;;;1.60;1.30;;;15.50;99.90;;;;;;5012931;28;20057;-81
2021/08/04 10:18:17;;;;;;;;;;;15.80;99.90;;;;;;5032081;28;20053;-80
2021/08/04 10:20:46;;;;;;;1.98;1.23;;;15.90;99.90;;;;;;5031601;28;19921;-81
2021/08/04 10:23:16;;;;;;;3.10;1.15;;;15.90;99.90;;;;;;5032465;28;20565;-81
2021/08/04 10:25:45;;;;;;;2.03;1.53;;;15.80;99.90;;;;;;5032683;28;20502;-81
2021/08/04 10:28:15;;;;;;;1.15;0.73;;;15.90;99.90;;;;;;5032742;28;20048;-81
2021/08/04 10:30:44;;;;;;;1.17;0.75;;;16.00;99.90;;;;;;5032380;28;20049;-80
2021/08/04 10:33:13;;;;;;;1.73;1.25;;;16.00;99.90;;;;;;5032877;28;20046;-82
2021/08/04 10:35:50;;;;;;;1.20;0.90;;;16.00;99.90;;;;;;5032352;28;20048;-80
2021/08/04 10:38:21;;;;;;;1.23;1.00;;;16.00;99.90;;;;;;5064001;28;20052;-80
2021/08/04 10:41:11;;;;;;;0.88;0.80;;;16.00;99.90;;;;;;5033537;28;20049;-81
2021/08/04 10:43:52;;;;;;;1.90;1.42;;;15.90;99.90;;;;;;5050968;28;20068;-80
2021/08/04 10:46:29;;;;;;;2.40;1.20;;;15.90;99.90;;;;;;5052668;28;20052;-81
2021/08/04 10:49:09;;;;;;;0.95;0.82;;;15.90;99.90;;;;;;5047757;28;20034;-81
2021/08/04 10:51:41;;;;;;;1.08;0.75;;;16.00;99.90;;;;;;5031772;28;20038;-81
2021/08/04 10:54:19;;;;;;;1.42;1.02;;;15.80;99.90;;;;;;5030388;28;20052;-80
2021/08/04 10:56:50;;;;;;;0.93;0.65;;;15.90;99.90;;;;;;5029205;28;20054;-81
2021/08/04 10:59:25;;;;;;;1.25;0.70;;;15.90;99.90;;;;;;5030793;28;20044;-81
2021/08/04 11:02:15;;;;;;;0.65;0.65;;;16.00;99.90;;;;;;5032180;28;20521;-81
2021/08/04 11:04:47;;;;;;;1.65;0.60;;;15.90;99.90;;;;;;5031900;28;20061;-81
2021/08/04 11:07:17;;;;;;;0.50;0.50;;;15.80;99.90;;;;;;5031765;28;20048;-80
2021/08/04 11:09:48;;;;;;;1.25;0.77;;;15.90;99.90;;;;;;5046829;28;20061;-80
2021/08/04 11:12:21;;;;;;;1.35;1.10;;;15.90;99.90;;;;;;5045544;28;20049;-80
2021/08/04 11:14:50;;;;;;;1.05;0.70;;;15.90;99.90;;;;;;5050122;28;20045;-80
2021/08/04 11:17:19;;;;;;;1.92;1.13;;;15.90;99.90;;;;;;5039556;28;20050;-81
2021/08/04 11:20:09;;;;;;;0.90;0.60;;;15.90;99.90;;;;;;5031400;28;20422;-80
2021/08/04 11:22:40;;;;;;;1.15;1.05;;;16.00;99.90;;;;;;5031871;28;20379;-80
2021/08/04 11:25:08;;;;;;;0.93;0.93;;;16.10;99.90;;;;;;5028394;28;20049;-80
2021/08/04 11:27:58;;;;;;;1.27;1.02;;;16.10;99.90;;;;;;5031407;28;20046;-80
2021/08/04 11:30:30;;;;;;;1.10;1.10;;;16.10;99.90;;;;;;5025421;28;20072;-80
2021/08/04 11:33:18;;;;;;;1.63;0.82;;;16.10;99.90;;;;;;5031098;28;20288;-80
2021/08/04 11:36:07;;;;;;;1.10;1.00;;;16.10;99.90;;;;;;5031150;28;20053;-81
2021/08/04 11:39:04;;;;;;;1.23;0.85;;;16.20;99.90;;;;;;5027740;28;20064;-80
2021/08/04 11:41:52;;;;;;;1.42;0.70;;;16.20;99.90;;;;;;5041758;28;20045;-80
2021/08/04 11:44:26;;;;;;;2.15;1.70;;;16.20;99.90;;;;;;5031048;28;20049;-80
2021/08/04 11:47:02;;;;;;;1.15;0.95;;;16.20;99.90;;;;;;5029803;28;20042;-80
2021/08/04 11:49:32;;;;;;;0.93;0.60;;;16.20;99.90;;;;;;5030113;28;20205;-80
2021/08/04 11:52:08;;;;;;;1.80;0.85;;;16.20;99.90;;;;;;5030787;28;20730;-80
2021/08/04 11:54:45;;;;;;;1.05;0.60;;;16.30;99.90;;;;;;5031344;28;20049;-81
2021/08/04 11:57:29;;;;;;;1.23;0.70;;;16.30;99.90;;;;;;5043848;28;20545;-81
2021/08/04 12:00:23;;;;;;;0.95;0.80;;;16.50;99.90;;;;;;5030821;28;20053;-80
2021/08/04 12:02:51;;;;;;;0.77;0.50;;;16.50;99.90;;;;;;5022963;28;20494;-80
2021/08/04 12:05:20;;;;;;;0.85;0.65;;;16.50;99.90;;;;;;5031376;28;20061;-80
2021/08/04 12:07:49;;;;;;;1.05;0.95;;;16.40;99.90;;;;;;5030978;28;20045;-81
2021/08/04 12:10:22;;;;;;;1.15;0.70;;;16.40;99.90;;;;;;5030068;28;20057;-80
2021/08/04 12:12:52;;;;;;;0.70;0.70;;;16.40;99.90;;;;;;5012945;28;20072;-80
2021/08/04 12:15:26;;;;;;;0.98;0.98;;;16.50;99.90;;;;;;5010450;28;20046;-80
2021/08/04 12:18:03;;;;;;;1.25;0.88;;;16.50;99.90;;;;;;5057972;28;20045;-80
2021/08/04 12:20:33;;;;;;;1.30;1.10;;;16.40;99.90;;;;;;5030030;28;20045;-80
2021/08/04 12:23:06;;;;;;;5.03;0.97;;;16.40;99.90;;;;;;5030541;28;20502;-82
2021/08/04 12:25:41;;;;;;;2.13;1.25;;;16.50;99.90;;;;;;5028091;28;20430;-89
2021/08/04 12:28:09;;;;;;;1.15;1.05;;;16.40;99.90;;;;;;5045633;28;20040;-89
2021/08/04 12:30:43;;;;;;;1.25;1.15;;;16.30;99.90;;;;;;5011473;28;20056;-88
2021/08/04 12:33:20;;;;;;;0.77;0.77;;;16.30;99.90;;;;;;5029958;28;20050;-88
2021/08/04 12:36:03;;;;;;;8.70;1.33;;;16.30;99.90;;;;;;5030551;28;20052;-89
2021/08/04 12:38:55;;;;;;;2.05;0.98;;;16.20;99.90;;;;;;5056899;28;20068;-88
2021/08/04 12:41:26;;;;;;;2.45;0.70;;;16.20;99.90;;;;;;5037028;28;20045;-89
2021/08/04 12:43:55;;;;;;;3.03;0.60;;;16.20;99.90;;;;;;5050652;28;20044;-91
2021/08/04 12:46:28;;;;;;;5.10;0.77;;;16.30;99.90;;;;;;5049937;28;20779;-89
2021/08/04 12:48:57;;;;;;;0.68;0.68;;;16.20;99.90;;;;;;5047623;28;20045;-90
2021/08/04 12:51:27;;;;;;;1.85;0.98;;;16.10;99.90;;;;;;5031043;28;20383;-89
2021/08/04 12:54:00;;;;;;;2.45;1.27;;;16.00;99.90;;;;;;5030930;28;20042;-92
2021/08/04 12:56:40;;;;;;;2.97;2.67;;;15.90;99.90;;;;;;5029610;28;20040;-90
2021/08/04 12:59:15;;;;;;;0.70;0.70;;;15.80;99.90;;;;;;5030345;28;20041;-87
2021/08/04 13:01:47;;;;;;;1.23;0.93;;;15.80;99.90;;;;;;5030201;28;20053;-89
2021/08/04 13:04:21;;;;;;;0.85;0.80;;;15.70;99.90;;;;;;5030396;28;20047;-89
2021/08/04 13:07:08;;;;;;;2.78;0.75;;;15.70;99.90;;;;;;5030387;28;20053;-90
2021/08/04 13:09:36;;;;;;;1.02;0.98;;;15.70;99.90;;;;;;5030922;28;20076;-90